Time;durP1;ratioP1;P1;durP2;ratioP2;P2;SDS_P1;SDS_P2;PMS_P1;PMS_P2;Temp;Humidity;BMP_temperature;BMP_pressure;BME280_temperature;BME280_humidity;BME280_pressure;Samples;Min_cycle;Max_cycle;Signal;HPM_P1;HPM_P2
2022/03/07 00:04:51;;;;;;;10.85;4.63;;;-0.70;99.90;;;;;;5027051;28;20103;-79
2022/03/07 00:07:32;;;;;;;6.95;4.05;;;-0.70;99.90;;;;;;5030548;28;20068;-80
2022/03/07 00:10:15;;;;;;;;;;;;;;;;;;;;;
2022/03/07 00:12:59;;;;;;;7.05;4.40;;;-0.70;99.90;;;;;;5039329;28;20064;-80
2022/03/07 00:15:54;;;;;;;6.63;4.35;;;-0.70;99.90;;;;;;5040002;28;20063;-80
2022/03/07 00:18:28;;;;;;;7.32;4.18;;;-0.80;99.90;;;;;;5035825;28;20095;-79
2022/03/07 00:21:07;;;;;;;9.32;4.28;;;-0.80;99.90;;;;;;5038989;28;20038;-80
2022/03/07 00:24:13;;;;;;;8.23;4.30;;;-1.00;99.90;;;;;;5040752;28;20037;-80
2022/03/07 00:27:08;;;;;;;8.27;4.82;;;-1.00;99.90;;;;;;5037276;28;20053;-80
2022/03/07 00:30:25;;;;;;;;;;;;;;;;;;;;;
2022/03/07 00:33:48;;;;;;;7.55;4.40;;;-0.90;99.90;;;;;;5024385;28;20045;-80
2022/03/07 00:36:46;;;;;;;7.43;4.68;;;-0.90;99.90;;;;;;5008607;28;20082;-80
2022/03/07 00:39:33;;;;;;;6.70;4.20;;;-0.90;99.90;;;;;;5054553;28;20068;-80
2022/03/07 00:46:24;;;;;;;6.97;4.22;;;-1.00;99.90;;;;;;5012467;28;20115;-80
2022/03/07 00:52:54;;;;;;;8.03;4.10;;;-1.10;99.90;;;;;;4980962;28;20429;-80
2022/03/07 00:55:54;;;;;;;11.52;4.43;;;-1.20;99.90;;;;;;5039060;28;20276;-79
2022/03/07 01:13:42;;;;;;;8.73;4.45;;;-1.40;99.90;;;;;;5014711;28;20049;-82
2022/03/07 01:16:41;;;;;;;7.70;3.90;;;-1.50;99.90;;;;;;4989910;28;20193;-82
2022/03/07 01:19:15;;;;;;;8.35;4.50;;;-1.40;99.90;;;;;;5040405;28;20053;-81
2022/03/07 01:21:44;;;;;;;8.07;4.55;;;-1.40;99.90;;;;;;5040895;28;20095;-82
2022/03/07 01:24:21;;;;;;;7.00;4.28;;;-1.40;99.90;;;;;;5041054;28;20392;-81
2022/03/07 01:26:57;;;;;;;7.85;4.00;;;-1.40;99.90;;;;;;5040291;28;20124;-81
2022/03/07 01:29:36;;;;;;;7.50;4.47;;;-1.40;99.90;;;;;;5023003;28;20041;-82
2022/03/07 01:39:50;;;;;;;5.40;3.95;;;-1.30;99.90;;;;;;5002605;28;19924;-82
2022/03/07 01:46:42;;;;;;;11.18;4.35;;;-1.30;99.90;;;;;;4981636;28;20141;-83
2022/03/07 02:02:02;;;;;;;7.97;4.53;;;-1.40;99.90;;;;;;5037659;28;20091;-82
2022/03/07 02:29:08;;;;;;;;;;;;;;;;;;;;;
2022/03/07 02:47:44;;;;;;;12.88;5.15;;;-1.90;99.90;;;;;;4946769;28;20053;-79
2022/03/07 02:50:58;;;;;;;;;;;;;;;;;;;;;
2022/03/07 03:13:12;;;;;;;;;;;;;;;;;;;;;
2022/03/07 03:20:30;;;;;;;;;;;;;;;;;;;;;
2022/03/07 03:33:42;;;;;;;;;;;;;;;;;;;;;
2022/03/07 04:42:26;;;;;;;;;;;;;;;;;;;;;
2022/03/07 05:32:49;;;;;;;;;;;;;;;;;;;;;
2022/03/07 05:36:05;;;;;;;13.30;6.40;;;-2.20;99.90;;;;;;4887354;28;20049;-81
2022/03/07 05:42:46;;;;;;;;;;;;;;;;;;;;;
2022/03/07 05:45:12;;;;;;;17.77;9.15;;;-2.10;99.90;;;;;;4825101;29;20066;-80
2022/03/07 05:47:42;;;;;;;20.60;9.80;;;-2.10;99.90;;;;;;4811584;29;20088;-80
2022/03/07 05:50:08;;;;;;;19.45;8.10;;;-2.00;99.90;;;;;;4888319;29;20061;-80
2022/03/07 05:52:35;;;;;;;20.17;9.40;;;-2.00;99.90;;;;;;4906952;28;20061;-80
2022/03/07 05:55:01;;;;;;;23.25;8.95;;;-1.90;99.90;;;;;;4983726;28;20041;-80
2022/03/07 05:57:27;;;;;;;19.77;9.27;;;-1.90;99.90;;;;;;4998903;28;20077;-80
2022/03/07 05:59:53;;;;;;;17.98;8.85;;;-1.90;99.90;;;;;;4965937;28;20043;-80
2022/03/07 06:02:18;;;;;;;15.35;8.38;;;-1.80;99.90;;;;;;4982767;28;20520;-80
2022/03/07 06:04:44;;;;;;;16.48;7.70;;;-1.80;99.90;;;;;;4998972;28;20039;-80
2022/03/07 06:07:10;;;;;;;15.02;7.70;;;-1.80;99.90;;;;;;4998716;28;20136;-80
2022/03/07 06:09:35;;;;;;;135.77;52.63;;;-1.80;99.90;;;;;;4964961;28;20505;-80
2022/03/07 06:12:01;;;;;;;26.10;12.90;;;-1.70;99.90;;;;;;4998919;28;20046;-81
2022/03/07 06:14:26;;;;;;;23.98;11.77;;;-1.70;99.90;;;;;;4981122;28;20130;-80
2022/03/07 06:16:52;;;;;;;15.90;9.30;;;-1.80;99.90;;;;;;4996914;28;20073;-79
2022/03/07 06:19:18;;;;;;;20.60;8.57;;;-1.70;99.90;;;;;;4982115;28;20066;-81
2022/03/07 06:21:43;;;;;;;17.98;8.98;;;-1.60;99.90;;;;;;4981225;28;20065;-81
2022/03/07 06:24:09;;;;;;;17.50;9.80;;;-1.50;99.90;;;;;;4981873;28;20477;-82
2022/03/07 06:26:37;;;;;;;20.45;9.32;;;-1.50;99.90;;;;;;4980978;28;20046;-82
2022/03/07 06:29:05;;;;;;;23.92;10.23;;;-1.40;99.90;;;;;;4981228;28;20046;-82
2022/03/07 06:31:31;;;;;;;90.97;42.28;;;-1.40;99.90;;;;;;4997741;28;20105;-79
2022/03/07 06:33:56;;;;;;;58.83;26.65;;;-1.30;99.90;;;;;;4981099;28;20042;-81
2022/03/07 06:36:22;;;;;;;34.83;15.82;;;-1.30;99.90;;;;;;4981890;28;20050;-80
2022/03/07 06:38:48;;;;;;;21.95;10.30;;;-1.20;99.90;;;;;;4984777;28;20108;-79
2022/03/07 06:41:13;;;;;;;28.52;11.40;;;-1.20;99.90;;;;;;4982438;28;20045;-80
2022/03/07 06:43:39;;;;;;;23.05;11.43;;;-1.20;99.90;;;;;;4998506;28;20043;-80
2022/03/07 06:46:05;;;;;;;20.70;9.57;;;-1.20;99.90;;;;;;4979818;28;20045;-81
2022/03/07 06:48:31;;;;;;;22.02;10.38;;;-1.10;99.90;;;;;;4979834;28;20129;-81
2022/03/07 06:50:56;;;;;;;23.00;9.60;;;-1.00;99.90;;;;;;4964395;28;20085;-80
2022/03/07 06:53:22;;;;;;;15.65;9.75;;;-1.00;99.90;;;;;;4980223;28;20049;-80
2022/03/07 06:55:48;;;;;;;18.77;9.90;;;-0.90;99.90;;;;;;4980583;28;20046;-80
2022/03/07 06:58:13;;;;;;;24.15;9.63;;;-0.80;99.90;;;;;;4980551;28;20038;-80
2022/03/07 07:00:39;;;;;;;19.88;8.80;;;-0.70;99.90;;;;;;4980459;28;20042;-80
2022/03/07 07:03:05;;;;;;;17.05;9.60;;;-0.60;99.90;;;;;;4980512;28;20057;-81
2022/03/07 07:05:32;;;;;;;17.52;8.50;;;-0.50;99.90;;;;;;4979785;28;20049;-80
2022/03/07 07:07:59;;;;;;;17.92;8.50;;;-0.40;99.90;;;;;;4980917;28;20093;-80
2022/03/07 07:10:25;;;;;;;17.70;9.02;;;-0.40;99.90;;;;;;4998065;28;20046;-81
2022/03/07 07:12:52;;;;;;;14.30;8.05;;;-0.30;99.90;;;;;;4981009;28;20050;-81
2022/03/07 07:15:18;;;;;;;17.05;8.02;;;-0.20;99.90;;;;;;4980417;28;20102;-80
2022/03/07 07:17:44;;;;;;;17.30;8.95;;;-0.10;99.90;;;;;;4980493;28;20085;-80
2022/03/07 07:20:11;;;;;;;17.58;9.00;;;-0.20;99.90;;;;;;4979829;28;20042;-80
2022/03/07 07:22:37;;;;;;;16.65;8.88;;;-0.20;99.90;;;;;;4980229;28;20046;-80
2022/03/07 07:25:04;;;;;;;19.13;8.77;;;-0.10;99.90;;;;;;4980694;28;20094;-81
2022/03/07 07:27:30;;;;;;;17.42;9.95;;;0.00;99.90;;;;;;4981104;28;20034;-80
2022/03/07 07:29:56;;;;;;;20.67;10.38;;;0.20;99.90;;;;;;4980511;28;20035;-81
2022/03/07 07:32:21;;;;;;;19.50;9.93;;;0.40;99.90;;;;;;4980389;28;20034;-81
2022/03/07 07:34:47;;;;;;;18.95;9.25;;;0.70;99.90;;;;;;4964884;28;20042;-81
2022/03/07 07:37:13;;;;;;;16.65;8.63;;;1.10;99.90;;;;;;4980818;28;20039;-81
2022/03/07 07:39:38;;;;;;;16.40;8.60;;;1.60;99.90;;;;;;4980753;28;20398;-81
2022/03/07 07:42:04;;;;;;;20.23;9.13;;;2.10;99.90;;;;;;4980176;28;20038;-81
2022/03/07 07:44:30;;;;;;;13.82;8.48;;;2.80;99.90;;;;;;4980187;28;20501;-81
2022/03/07 07:46:55;;;;;;;14.43;8.05;;;3.50;99.90;;;;;;4979598;28;20035;-81
2022/03/07 07:49:24;;;;;;;16.50;8.70;;;4.00;99.90;;;;;;4980574;28;20121;-80
2022/03/07 07:51:53;;;;;;;15.52;8.30;;;4.50;99.90;;;;;;4980003;28;20128;-81
2022/03/07 07:54:19;;;;;;;16.92;9.05;;;4.90;99.90;;;;;;4980181;28;20042;-81
2022/03/07 07:56:45;;;;;;;13.25;7.63;;;4.80;99.90;;;;;;4980243;28;20049;-81
2022/03/07 07:59:11;;;;;;;14.40;7.82;;;4.80;99.90;;;;;;4980855;28;20158;-81
2022/03/07 08:01:36;;;;;;;13.80;7.95;;;5.00;99.90;;;;;;4979813;28;20039;-81
2022/03/07 08:04:02;;;;;;;12.30;7.20;;;5.00;99.90;;;;;;4979935;28;20089;-81
2022/03/07 08:06:28;;;;;;;13.52;7.78;;;4.90;99.90;;;;;;4979975;28;20038;-82
2022/03/07 08:08:54;;;;;;;14.10;7.07;;;4.90;99.90;;;;;;4980255;28;20044;-81
2022/03/07 08:11:19;;;;;;;11.20;6.40;;;4.90;99.90;;;;;;4980243;28;20457;-81
2022/03/07 08:13:45;;;;;;;11.75;7.75;;;5.00;99.90;;;;;;4979952;28;20050;-81
2022/03/07 08:16:10;;;;;;;13.38;7.13;;;5.20;99.90;;;;;;4978558;28;20043;-81
2022/03/07 08:18:36;;;;;;;11.43;7.10;;;5.40;99.90;;;;;;4977944;28;20042;-82
2022/03/07 08:21:02;;;;;;;10.73;6.53;;;5.60;99.90;;;;;;4976882;28;20045;-82
2022/03/07 08:23:27;;;;;;;10.02;6.03;;;5.90;99.90;;;;;;4976883;28;20057;-82
2022/03/07 08:25:53;;;;;;;11.30;5.43;;;6.00;99.90;;;;;;4977476;28;20046;-81
2022/03/07 08:28:19;;;;;;;8.35;4.78;;;6.10;99.90;;;;;;4976237;28;20034;-82
2022/03/07 08:30:45;;;;;;;10.63;5.10;;;6.10;99.90;;;;;;4975167;28;20053;-83
2022/03/07 08:33:10;;;;;;;9.85;5.40;;;6.10;99.90;;;;;;4975383;28;20413;-83
2022/03/07 08:35:36;;;;;;;7.80;5.28;;;6.10;99.90;;;;;;4975411;28;20397;-83
2022/03/07 08:38:02;;;;;;;7.05;5.03;;;6.00;99.90;;;;;;4975369;28;20508;-83
2022/03/07 08:40:28;;;;;;;9.73;5.40;;;6.00;99.90;;;;;;4974415;28;20042;-82
2022/03/07 08:42:54;;;;;;;8.60;4.75;;;6.00;99.90;;;;;;4974851;28;20081;-82
2022/03/07 08:45:22;;;;;;;6.75;3.90;;;6.10;99.90;;;;;;4990900;28;20069;-83
2022/03/07 08:47:48;;;;;;;6.68;3.92;;;6.30;99.90;;;;;;4991315;28;20043;-83
2022/03/07 08:50:16;;;;;;;9.95;4.20;;;6.50;99.90;;;;;;4974629;28;20134;-83
2022/03/07 08:52:41;;;;;;;7.95;4.63;;;6.70;99.90;;;;;;4975005;28;20041;-84
2022/03/07 08:55:08;;;;;;;9.23;3.60;;;6.90;99.90;;;;;;4974869;28;20049;-83
2022/03/07 08:57:34;;;;;;;7.50;3.47;;;7.00;99.90;;;;;;4974968;28;20578;-83
2022/03/07 08:59:59;;;;;;;5.97;2.85;;;7.20;99.90;;;;;;4974059;28;20042;-83
2022/03/07 09:02:25;;;;;;;7.40;3.40;;;7.30;99.90;;;;;;4974606;28;20089;-84
2022/03/07 09:04:50;;;;;;;3.83;2.50;;;7.30;99.90;;;;;;4974897;28;20520;-84
2022/03/07 09:07:16;;;;;;;5.95;3.10;;;7.40;99.90;;;;;;4974837;28;20038;-83
2022/03/07 09:09:41;;;;;;;11.23;4.28;;;7.70;99.90;;;;;;4974292;28;20038;-83
2022/03/07 09:12:08;;;;;;;8.60;4.22;;;7.70;99.90;;;;;;4974715;28;20471;-83
2022/03/07 09:14:34;;;;;;;6.03;3.90;;;7.70;99.90;;;;;;4974649;28;20045;-83
2022/03/07 09:17:00;;;;;;;4.95;3.70;;;7.70;99.90;;;;;;4974568;28;20038;-83
2022/03/07 09:19:26;;;;;;;7.50;3.78;;;7.60;99.90;;;;;;4974660;28;20326;-84
2022/03/07 09:21:52;;;;;;;8.25;3.80;;;7.70;99.90;;;;;;4974256;28;20073;-83
2022/03/07 09:24:18;;;;;;;9.75;4.13;;;7.70;99.90;;;;;;4990436;28;20054;-84
2022/03/07 09:26:44;;;;;;;10.13;3.70;;;7.80;99.90;;;;;;4974161;28;20042;-84
2022/03/07 09:29:10;;;;;;;6.95;3.50;;;7.80;99.90;;;;;;4974019;28;20097;-84
2022/03/07 09:31:36;;;;;;;7.40;3.72;;;7.80;99.90;;;;;;4974468;28;20468;-83
2022/03/07 09:34:02;;;;;;;9.32;3.58;;;7.70;99.90;;;;;;4974271;28;20177;-84
2022/03/07 09:36:28;;;;;;;6.90;3.42;;;7.70;99.90;;;;;;4974327;28;20034;-84
2022/03/07 09:38:54;;;;;;;6.03;2.80;;;7.90;99.90;;;;;;4974380;28;20127;-83
2022/03/07 09:41:20;;;;;;;5.53;3.03;;;8.10;99.90;;;;;;4974212;28;20042;-83
2022/03/07 09:43:46;;;;;;;4.72;3.05;;;8.20;99.90;;;;;;4974265;28;20584;-83
2022/03/07 09:46:14;;;;;;;9.82;4.35;;;8.30;99.90;;;;;;4990420;28;20046;-83
2022/03/07 09:48:41;;;;;;;5.75;3.03;;;8.50;99.90;;;;;;4974519;28;20034;-83
2022/03/07 09:51:07;;;;;;;8.13;4.20;;;8.90;99.90;;;;;;4990196;28;20056;-83
2022/03/07 09:53:32;;;;;;;4.97;3.45;;;9.50;99.90;;;;;;4974173;28;20100;-84
2022/03/07 09:55:58;;;;;;;6.32;3.33;;;10.00;99.90;;;;;;4974152;28;20039;-83
2022/03/07 09:58:24;;;;;;;4.75;3.28;;;10.30;99.90;;;;;;4974107;28;20512;-83
2022/03/07 10:00:49;;;;;;;6.18;3.40;;;10.70;99.90;;;;;;4973864;28;20039;-83
2022/03/07 10:03:18;;;;;;;5.13;3.75;;;10.90;99.90;;;;;;4974061;28;20057;-83
2022/03/07 10:05:45;;;;;;;7.00;3.50;;;11.00;99.90;;;;;;4974483;28;20405;-84
2022/03/07 10:08:24;;;;;;;10.10;5.07;;;11.20;99.90;;;;;;4973998;28;20046;-83
2022/03/07 10:10:53;;;;;;;8.20;3.80;;;11.30;99.90;;;;;;4974571;28;20052;-83
2022/03/07 10:13:20;;;;;;;3.50;2.50;;;11.50;99.90;;;;;;4975400;28;20540;-83
2022/03/07 10:15:56;;;;;;;4.95;2.75;;;11.70;99.90;;;;;;4975557;28;20444;-83
2022/03/07 10:18:22;;;;;;;6.00;3.10;;;11.50;99.90;;;;;;4991694;28;20061;-83
2022/03/07 10:20:49;;;;;;;7.95;3.13;;;11.10;99.90;;;;;;4974196;28;20035;-83
2022/03/07 10:23:14;;;;;;;9.90;3.72;;;10.70;99.90;;;;;;4974853;28;20050;-83
2022/03/07 10:25:42;;;;;;;8.25;4.00;;;10.10;99.90;;;;;;4974774;28;20089;-83
2022/03/07 10:28:08;;;;;;;8.55;3.90;;;9.60;99.90;;;;;;4974790;28;20118;-83
2022/03/07 10:30:35;;;;;;;6.25;3.22;;;9.00;99.90;;;;;;4974356;28;20039;-83
2022/03/07 10:33:13;;;;;;;4.60;3.42;;;8.80;99.90;;;;;;4974829;28;20065;-83
2022/03/07 10:35:42;;;;;;;7.18;3.13;;;8.60;99.90;;;;;;4991244;28;20082;-83
2022/03/07 10:38:08;;;;;;;7.50;3.00;;;8.20;99.90;;;;;;4975027;28;20053;-83
2022/03/07 10:40:36;;;;;;;5.53;2.42;;;8.10;99.90;;;;;;4977160;28;20049;-83
2022/03/07 10:43:04;;;;;;;6.05;2.63;;;7.80;99.90;;;;;;4977993;28;20047;-76
2022/03/07 10:45:30;;;;;;;6.78;2.63;;;7.80;99.90;;;;;;4978608;28;20065;-83
2022/03/07 10:47:58;;;;;;;4.80;2.05;;;7.90;99.90;;;;;;4979073;28;20034;-83
2022/03/07 10:50:25;;;;;;;5.05;2.40;;;8.00;99.90;;;;;;4983356;28;20501;-82
2022/03/07 10:52:53;;;;;;;5.05;3.22;;;8.10;99.90;;;;;;4979868;28;20537;-82
2022/03/07 10:55:27;;;;;;;8.90;2.92;;;7.90;99.90;;;;;;4980571;28;20054;-82
2022/03/07 10:58:03;;;;;;;7.03;3.40;;;7.70;99.90;;;;;;4983211;28;20088;-83
2022/03/07 11:00:29;;;;;;;5.80;2.72;;;7.50;99.90;;;;;;4982500;28;20045;-83
2022/03/07 11:02:54;;;;;;;4.85;3.08;;;7.50;99.90;;;;;;4979571;28;20038;-82
2022/03/07 11:05:20;;;;;;;7.75;3.95;;;7.40;99.90;;;;;;4979506;28;20294;-83
2022/03/07 11:07:47;;;;;;;5.07;2.85;;;7.60;99.90;;;;;;4979051;28;20042;-83
2022/03/07 11:10:14;;;;;;;8.43;3.20;;;7.80;99.90;;;;;;4979492;28;20046;-83
2022/03/07 11:12:41;;;;;;;8.27;3.10;;;8.10;99.90;;;;;;4978189;28;20494;-82
2022/03/07 11:15:08;;;;;;;6.55;2.97;;;8.10;99.90;;;;;;4994001;28;20042;-80
2022/03/07 11:17:39;;;;;;;11.63;3.22;;;8.10;99.90;;;;;;4977085;28;20502;-80
2022/03/07 11:20:12;;;;;;;6.50;3.30;;;8.00;99.90;;;;;;4976552;28;20046;-80
2022/03/07 11:22:38;;;;;;;5.63;2.92;;;8.00;99.90;;;;;;4977264;28;20078;-80
2022/03/07 11:25:06;;;;;;;4.07;2.15;;;8.00;99.90;;;;;;4977573;28;20070;-80
2022/03/07 11:27:32;;;;;;;6.05;2.08;;;8.10;99.90;;;;;;4976930;28;20093;-80
2022/03/07 11:29:58;;;;;;;4.50;2.17;;;8.20;99.90;;;;;;4992445;28;20038;-80
2022/03/07 11:32:24;;;;;;;3.35;2.30;;;8.20;99.90;;;;;;4976593;28;20497;-80
2022/03/07 11:34:56;;;;;;;4.80;2.30;;;8.30;99.90;;;;;;4976984;28;20080;-80
2022/03/07 11:37:23;;;;;;;5.47;2.42;;;8.20;99.90;;;;;;4976839;28;20046;-80
2022/03/07 11:39:49;;;;;;;4.95;2.10;;;8.20;99.90;;;;;;4976302;28;20042;-80
2022/03/07 11:42:17;;;;;;;5.43;2.13;;;8.20;99.90;;;;;;4976595;28;20405;-80
2022/03/07 11:44:44;;;;;;;4.20;2.67;;;8.20;99.90;;;;;;4992913;28;20149;-80
2022/03/07 11:47:18;;;;;;;3.30;1.80;;;8.20;99.90;;;;;;4976811;28;20046;-80
2022/03/07 11:49:44;;;;;;;4.85;2.20;;;8.20;99.90;;;;;;4976894;28;20057;-80
2022/03/07 11:52:15;;;;;;;4.82;1.95;;;8.10;99.90;;;;;;4977174;28;20042;-80
2022/03/07 11:54:59;;;;;;;3.60;1.67;;;7.90;99.90;;;;;;4976631;28;20301;-80
2022/03/07 11:57:46;;;;;;;3.33;1.73;;;7.80;99.90;;;;;;4994480;28;20046;-80
2022/03/07 12:00:24;;;;;;;4.50;1.55;;;7.70;99.90;;;;;;4980962;28;20069;-79
2022/03/07 12:02:54;;;;;;;3.35;1.80;;;7.60;99.90;;;;;;4981911;28;20056;-80
2022/03/07 12:05:33;;;;;;;3.35;1.52;;;7.50;99.90;;;;;;4981885;28;20049;-80
2022/03/07 12:08:18;;;;;;;2.10;1.60;;;7.60;99.90;;;;;;4981760;28;20034;-80
2022/03/07 12:10:59;;;;;;;3.85;1.95;;;7.80;99.90;;;;;;4997279;28;20126;-80
2022/03/07 12:13:25;;;;;;;4.32;1.50;;;8.10;99.90;;;;;;4981226;28;20038;-80
2022/03/07 12:15:53;;;;;;;3.40;1.83;;;8.30;99.90;;;;;;5003998;28;20042;-80
2022/03/07 12:18:20;;;;;;;1.58;1.05;;;8.40;99.90;;;;;;4997482;28;20131;-79
2022/03/07 12:20:53;;;;;;;2.80;1.20;;;8.60;99.90;;;;;;4997364;28;20037;-80
2022/03/07 12:23:21;;;;;;;2.78;1.40;;;8.60;99.90;;;;;;4983667;28;20070;-81
2022/03/07 12:25:54;;;;;;;2.05;1.17;;;8.60;99.90;;;;;;5015602;28;20046;-80
2022/03/07 12:28:19;;;;;;;2.47;1.20;;;8.60;99.90;;;;;;4999010;28;20102;-81
2022/03/07 12:30:45;;;;;;;2.22;0.88;;;8.50;99.90;;;;;;4998732;28;20069;-81
2022/03/07 12:33:11;;;;;;;2.13;1.48;;;8.50;99.90;;;;;;4994263;28;20050;-82
2022/03/07 12:35:37;;;;;;;2.05;0.88;;;8.50;99.90;;;;;;4976141;28;20077;-82
2022/03/07 12:38:08;;;;;;;4.22;1.08;;;8.60;99.90;;;;;;4993650;28;20049;-83
2022/03/07 12:40:36;;;;;;;3.00;1.58;;;8.60;99.90;;;;;;4993490;28;20050;-84
2022/03/07 12:43:02;;;;;;;2.58;1.30;;;8.70;99.90;;;;;;5010191;28;20038;-84
2022/03/07 12:45:28;;;;;;;2.17;1.40;;;8.70;99.90;;;;;;4993982;28;20040;-82
2022/03/07 12:47:54;;;;;;;3.83;1.65;;;8.60;99.90;;;;;;4991553;28;20106;-85
2022/03/07 12:50:25;;;;;;;4.10;1.73;;;8.50;99.90;;;;;;4992023;28;20038;-83
2022/03/07 12:52:51;;;;;;;3.00;1.95;;;8.40;99.90;;;;;;5011849;28;20070;-83
2022/03/07 12:55:18;;;;;;;3.22;1.63;;;8.40;99.90;;;;;;4993114;28;20030;-82
2022/03/07 12:57:44;;;;;;;3.47;1.33;;;8.40;99.90;;;;;;4993268;28;20066;-83
2022/03/07 13:00:15;;;;;;;2.88;1.50;;;8.40;99.90;;;;;;4989622;28;20038;-82
2022/03/07 13:02:46;;;;;;;5.15;1.80;;;8.40;99.90;;;;;;5010481;28;20030;-84
2022/03/07 13:05:15;;;;;;;4.70;1.73;;;8.40;99.90;;;;;;5005856;28;20046;-80
2022/03/07 13:07:52;;;;;;;3.17;1.88;;;8.40;99.90;;;;;;4980380;28;20035;-80
2022/03/07 13:10:17;;;;;;;4.20;2.50;;;8.30;99.90;;;;;;4996257;28;20549;-80
2022/03/07 13:12:43;;;;;;;4.32;2.10;;;8.20;99.90;;;;;;4980807;28;20098;-80
2022/03/07 13:15:09;;;;;;;3.15;2.40;;;8.20;99.90;;;;;;4980539;28;20464;-80
2022/03/07 13:17:35;;;;;;;4.38;2.20;;;8.30;99.90;;;;;;4980474;28;20122;-80
2022/03/07 13:20:02;;;;;;;5.93;2.33;;;8.40;99.90;;;;;;4980549;28;20046;-80
2022/03/07 13:22:30;;;;;;;6.57;2.38;;;8.50;99.90;;;;;;4980226;28;20417;-80
2022/03/07 13:24:58;;;;;;;3.78;2.35;;;8.70;99.90;;;;;;4980148;28;20046;-80
2022/03/07 13:27:24;;;;;;;3.55;2.10;;;8.70;99.90;;;;;;4995968;28;20053;-80
2022/03/07 13:30:04;;;;;;;3.97;1.83;;;8.50;99.90;;;;;;4979031;28;20050;-80
2022/03/07 13:32:38;;;;;;;5.97;1.85;;;8.30;99.90;;;;;;4979607;28;20030;-80
2022/03/07 13:35:04;;;;;;;3.47;1.58;;;8.10;99.90;;;;;;4995871;28;20073;-80
2022/03/07 13:37:43;;;;;;;3.97;1.83;;;8.00;99.90;;;;;;4979836;28;20133;-80
2022/03/07 13:40:10;;;;;;;2.45;2.08;;;8.10;99.90;;;;;;4979128;28;20486;-80
2022/03/07 13:42:44;;;;;;;2.97;2.10;;;8.20;99.90;;;;;;4980338;28;20038;-80
2022/03/07 13:45:14;;;;;;;2.70;2.22;;;8.40;99.90;;;;;;4996976;28;20035;-80
2022/03/07 13:47:40;;;;;;;3.55;2.10;;;8.50;99.90;;;;;;4996315;28;20080;-80
2022/03/07 13:50:07;;;;;;;3.08;1.60;;;8.50;99.90;;;;;;4996035;28;20054;-80
2022/03/07 13:52:43;;;;;;;2.28;1.60;;;8.60;99.90;;;;;;4980480;28;20389;-80
2022/03/07 13:55:12;;;;;;;3.55;2.35;;;8.60;99.90;;;;;;4980373;28;20045;-80
2022/03/07 13:57:40;;;;;;;3.78;2.10;;;8.70;99.90;;;;;;4997351;28;20110;-80
2022/03/07 14:00:08;;;;;;;2.55;1.50;;;8.60;99.90;;;;;;5013396;28;20038;-80
2022/03/07 14:02:43;;;;;;;3.35;2.10;;;8.50;99.90;;;;;;4997217;28;20061;-80
2022/03/07 14:05:10;;;;;;;6.85;2.03;;;8.40;99.90;;;;;;4989184;28;20038;-79
2022/03/07 14:07:38;;;;;;;3.83;2.10;;;8.30;99.90;;;;;;4992547;28;20038;-79
2022/03/07 14:10:13;;;;;;;9.00;2.60;;;8.10;99.90;;;;;;4991375;28;20038;-79
2022/03/07 14:12:41;;;;;;;2.88;2.20;;;7.80;99.90;;;;;;4991981;28;20050;-79
2022/03/07 14:15:10;;;;;;;3.20;2.05;;;7.70;99.90;;;;;;4981170;28;20077;-79
2022/03/07 14:17:38;;;;;;;8.70;2.60;;;7.80;99.90;;;;;;4999046;28;20057;-80
2022/03/07 14:20:07;;;;;;;4.88;2.28;;;8.00;99.90;;;;;;4992334;28;20042;-84
2022/03/07 14:22:32;;;;;;;3.45;2.80;;;8.10;99.90;;;;;;5012515;28;20042;-83
2022/03/07 14:24:58;;;;;;;5.38;2.53;;;8.20;99.90;;;;;;4995597;28;20049;-83
2022/03/07 14:27:30;;;;;;;3.22;2.35;;;8.20;99.90;;;;;;4996608;28;20030;-83
2022/03/07 14:29:57;;;;;;;4.45;2.45;;;8.30;99.90;;;;;;5006243;28;20053;-80
2022/03/07 14:32:23;;;;;;;3.97;2.28;;;8.30;99.90;;;;;;4984469;28;20042;-80
2022/03/07 14:34:54;;;;;;;5.38;2.65;;;8.30;99.90;;;;;;4984371;28;20081;-80
2022/03/07 14:37:22;;;;;;;3.97;3.00;;;8.30;99.90;;;;;;4984086;28;20077;-80
2022/03/07 14:39:47;;;;;;;3.58;2.63;;;8.30;99.90;;;;;;5000372;28;20474;-79
2022/03/07 14:42:13;;;;;;;4.82;2.58;;;8.30;99.90;;;;;;4979958;28;20046;-79
2022/03/07 14:44:38;;;;;;;4.78;2.67;;;8.30;99.90;;;;;;4980657;28;20457;-79
2022/03/07 14:47:04;;;;;;;4.97;2.50;;;8.30;99.90;;;;;;4980869;28;20039;-79
2022/03/07 14:49:30;;;;;;;6.28;2.70;;;8.30;99.90;;;;;;4981333;28;20038;-79
2022/03/07 14:51:55;;;;;;;4.95;2.50;;;8.30;99.90;;;;;;4984066;28;20054;-80
2022/03/07 14:54:22;;;;;;;3.80;2.50;;;8.20;99.90;;;;;;4983981;28;20046;-80
2022/03/07 14:56:48;;;;;;;4.30;2.70;;;8.20;99.90;;;;;;4982264;28;20109;-80
2022/03/07 14:59:13;;;;;;;5.30;2.53;;;8.20;99.90;;;;;;4982863;28;20129;-80
2022/03/07 15:01:39;;;;;;;5.45;2.75;;;8.10;99.90;;;;;;4965906;28;20509;-80
2022/03/07 15:04:05;;;;;;;3.70;2.30;;;8.20;99.90;;;;;;4981785;28;20038;-80
2022/03/07 15:06:32;;;;;;;4.65;2.63;;;8.20;99.90;;;;;;4982086;28;20100;-80
2022/03/07 15:08:58;;;;;;;3.58;2.40;;;8.20;99.90;;;;;;4982995;28;20054;-80
2022/03/07 15:11:23;;;;;;;6.78;2.45;;;8.20;99.90;;;;;;4982165;28;20413;-80
2022/03/07 15:13:49;;;;;;;4.15;2.47;;;8.30;99.90;;;;;;4982730;28;20045;-80
2022/03/07 15:16:14;;;;;;;3.53;2.30;;;8.30;99.90;;;;;;4982345;28;20049;-80
2022/03/07 15:18:40;;;;;;;13.77;3.90;;;8.40;99.90;;;;;;4982086;28;20046;-80
2022/03/07 15:21:05;;;;;;;6.15;2.63;;;8.30;99.90;;;;;;4982100;28;20105;-80
2022/03/07 15:23:32;;;;;;;7.47;5.38;;;8.30;99.90;;;;;;4982449;28;20459;-80
2022/03/07 15:25:58;;;;;;;2.78;2.00;;;8.30;99.90;;;;;;4981853;28;20049;-80
2022/03/07 15:28:23;;;;;;;6.97;2.40;;;8.30;99.90;;;;;;4982061;28;20042;-80
2022/03/07 15:30:49;;;;;;;5.57;2.67;;;8.10;99.90;;;;;;4981723;28;20042;-80
2022/03/07 15:33:15;;;;;;;3.40;2.28;;;8.10;99.90;;;;;;4981793;28;20058;-80
2022/03/07 15:35:41;;;;;;;5.22;4.05;;;8.20;99.90;;;;;;4987531;28;20042;-80
2022/03/07 15:38:10;;;;;;;4.72;2.45;;;8.20;99.90;;;;;;4998281;28;20129;-80
2022/03/07 15:40:37;;;;;;;4.15;2.60;;;8.20;99.90;;;;;;4996583;28;20134;-80
2022/03/07 15:43:02;;;;;;;4.68;1.73;;;8.10;99.90;;;;;;4980862;28;20050;-80
2022/03/07 15:45:28;;;;;;;2.92;2.40;;;8.10;99.90;;;;;;4997506;28;20042;-80
2022/03/07 15:47:54;;;;;;;3.95;2.13;;;8.00;99.90;;;;;;5015324;28;20045;-80
2022/03/07 15:50:19;;;;;;;3.08;2.35;;;7.90;99.90;;;;;;4997547;28;20125;-80
2022/03/07 15:52:45;;;;;;;5.18;2.40;;;7.90;99.90;;;;;;4997464;28;20031;-80
2022/03/07 15:55:14;;;;;;;6.25;3.33;;;7.90;99.90;;;;;;4997706;28;20034;-80
2022/03/07 15:57:43;;;;;;;2.60;1.85;;;7.90;99.90;;;;;;4996282;28;20049;-80
2022/03/07 16:00:10;;;;;;;4.43;1.88;;;7.80;99.90;;;;;;4965817;28;20081;-80
2022/03/07 16:02:38;;;;;;;3.13;1.70;;;7.80;99.90;;;;;;4964909;28;20042;-80
2022/03/07 16:05:07;;;;;;;3.17;1.75;;;7.80;99.90;;;;;;4978674;28;20070;-80
2022/03/07 16:07:36;;;;;;;4.03;2.72;;;7.70;99.90;;;;;;4984000;28;20042;-83
2022/03/07 16:10:05;;;;;;;3.47;2.40;;;7.70;99.90;;;;;;4983879;28;20101;-83
2022/03/07 16:12:33;;;;;;;5.07;2.55;;;7.70;99.90;;;;;;4983534;28;20077;-82
2022/03/07 16:14:59;;;;;;;2.35;2.15;;;7.60;99.90;;;;;;4986994;28;20042;-81
2022/03/07 16:17:27;;;;;;;1.85;1.60;;;7.50;99.90;;;;;;4982195;28;20151;-79
2022/03/07 16:19:53;;;;;;;3.42;2.20;;;7.40;99.90;;;;;;4975068;28;20101;-78
2022/03/07 16:22:19;;;;;;;4.90;1.98;;;7.40;99.90;;;;;;4992867;28;20077;-78
2022/03/07 16:24:45;;;;;;;2.25;1.80;;;7.40;99.90;;;;;;4975335;28;20461;-78
2022/03/07 16:27:11;;;;;;;4.88;2.00;;;7.30;99.90;;;;;;4991582;28;20509;-78
2022/03/07 16:29:37;;;;;;;3.38;2.22;;;7.30;99.90;;;;;;4975356;28;20050;-78
2022/03/07 16:32:03;;;;;;;4.20;1.90;;;7.20;99.90;;;;;;4975155;28;20519;-77
2022/03/07 16:34:29;;;;;;;3.03;2.05;;;7.20;99.90;;;;;;4973856;28;20516;-77
2022/03/07 16:36:54;;;;;;;5.97;2.50;;;7.10;99.90;;;;;;4973040;28;20065;-77
2022/03/07 16:39:20;;;;;;;4.95;1.77;;;7.00;99.90;;;;;;4973394;28;20092;-77
2022/03/07 16:41:46;;;;;;;3.20;2.22;;;6.90;99.90;;;;;;4973340;28;20390;-77
2022/03/07 16:44:12;;;;;;;2.67;1.55;;;6.90;99.90;;;;;;4974003;28;20042;-77
2022/03/07 16:46:39;;;;;;;1.80;1.50;;;6.80;99.90;;;;;;4974383;28;20038;-77
2022/03/07 16:49:07;;;;;;;3.50;2.20;;;6.70;99.90;;;;;;4974936;28;20046;-77
2022/03/07 16:51:33;;;;;;;3.45;1.45;;;6.60;99.90;;;;;;4990855;28;20074;-77
2022/03/07 16:53:59;;;;;;;2.33;1.40;;;6.50;99.90;;;;;;4974247;28;20046;-77
2022/03/07 16:56:25;;;;;;;2.33;1.60;;;6.40;99.90;;;;;;4974458;28;20077;-76
2022/03/07 16:58:54;;;;;;;2.70;1.98;;;6.30;99.90;;;;;;4974023;28;20133;-77
2022/03/07 17:01:24;;;;;;;4.85;2.65;;;6.30;99.90;;;;;;4973631;28;20530;-77
2022/03/07 17:03:51;;;;;;;2.92;2.15;;;6.20;99.90;;;;;;4978002;28;20046;-79
2022/03/07 17:06:17;;;;;;;3.05;2.33;;;6.20;99.90;;;;;;4995685;28;20041;-80
2022/03/07 17:08:44;;;;;;;5.10;2.58;;;6.10;99.90;;;;;;4974155;28;20050;-77
2022/03/07 17:11:09;;;;;;;3.20;1.95;;;6.00;99.90;;;;;;4973646;28;20049;-77
2022/03/07 17:13:35;;;;;;;3.10;2.30;;;5.90;99.90;;;;;;4973932;28;20046;-77
2022/03/07 17:16:02;;;;;;;2.38;1.67;;;5.80;99.90;;;;;;4975856;28;20493;-77
2022/03/07 17:18:28;;;;;;;29.08;15.63;;;5.70;99.90;;;;;;4973278;28;20038;-77